Time;durP1;ratioP1;P1;durP2;ratioP2;P2;SDS_P1;SDS_P2;PMS_P1;PMS_P2;Temp;Humidity;BMP_temperature;BMP_pressure;BME280_temperature;BME280_humidity;BME280_pressure;Samples;Min_cycle;Max_cycle;Signal;HPM_P1;HPM_P2
2023/12/02 00:01:14;;;;;;;4.88;3.83;;;4.80;90.70;;;;;;5017136;28;20187;-45
2023/12/02 00:03:43;;;;;;;4.50;3.33;;;4.80;90.70;;;;;;5017093;28;20310;-44
2023/12/02 00:06:12;;;;;;;4.40;3.45;;;4.80;90.80;;;;;;5011718;28;20190;-43
2023/12/02 00:08:40;;;;;;;4.97;3.67;;;4.80;90.80;;;;;;5015870;28;20209;-46
2023/12/02 00:11:08;;;;;;;5.57;3.50;;;4.80;90.80;;;;;;5008024;28;20705;-44
2023/12/02 00:13:36;;;;;;;3.60;3.25;;;4.80;90.80;;;;;;5018091;28;20221;-44
2023/12/02 00:16:06;;;;;;;3.80;3.38;;;4.80;90.80;;;;;;5016589;28;20584;-44
2023/12/02 00:18:34;;;;;;;3.65;3.20;;;4.80;90.80;;;;;;5013034;28;20217;-46
2023/12/02 00:21:04;;;;;;;5.68;4.63;;;4.80;90.80;;;;;;5013101;28;20572;-44
2023/12/02 00:23:32;;;;;;;4.47;3.38;;;4.80;90.80;;;;;;5013028;28;20221;-44
2023/12/02 00:26:00;;;;;;;4.10;3.67;;;4.80;90.90;;;;;;5013498;28;20297;-45
2023/12/02 00:34:07;;;;;;;4.05;3.50;;;4.80;90.80;;;;;;4968632;28;20705;-45
2023/12/02 00:36:37;;;;;;;5.10;3.40;;;4.80;90.80;;;;;;4970320;28;20215;-44
2023/12/02 00:39:06;;;;;;;4.95;3.40;;;4.80;90.80;;;;;;4969900;28;20223;-44
2023/12/02 00:41:34;;;;;;;4.13;2.90;;;4.80;90.80;;;;;;4965498;28;20199;-44
2023/12/02 00:44:02;;;;;;;6.05;4.07;;;4.80;90.80;;;;;;4969950;28;20643;-46
2023/12/02 00:46:30;;;;;;;4.43;3.97;;;4.80;90.80;;;;;;4970699;28;20198;-45
2023/12/02 00:48:59;;;;;;;4.68;3.65;;;4.80;90.80;;;;;;4970004;28;20234;-44
2023/12/02 00:51:27;;;;;;;4.50;3.95;;;4.70;90.80;;;;;;4967468;28;20737;-44
2023/12/02 00:53:56;;;;;;;5.28;3.92;;;4.80;90.80;;;;;;4969352;28;20222;-44
2023/12/02 00:56:24;;;;;;;4.90;3.40;;;4.80;90.80;;;;;;4967898;28;20566;-45
2023/12/02 00:58:53;;;;;;;4.72;3.88;;;4.80;90.80;;;;;;4969590;28;20258;-44
2023/12/02 01:01:21;;;;;;;5.53;3.90;;;4.70;90.80;;;;;;4969456;28;20194;-45
2023/12/02 01:03:49;;;;;;;4.43;3.20;;;4.70;90.80;;;;;;4984420;28;20307;-46
2023/12/02 01:06:17;;;;;;;4.18;3.78;;;4.80;90.80;;;;;;4965548;28;20678;-44
2023/12/02 01:08:45;;;;;;;5.40;3.97;;;4.70;90.80;;;;;;4969394;28;20230;-45
2023/12/02 01:11:14;;;;;;;7.63;5.30;;;4.70;90.80;;;;;;4967787;28;20352;-45
2023/12/02 01:13:42;;;;;;;4.93;3.50;;;4.70;90.60;;;;;;4969537;28;20227;-46
2023/12/02 01:16:11;;;;;;;4.38;3.30;;;4.70;90.80;;;;;;4969991;28;20641;-45
2023/12/02 01:18:39;;;;;;;6.47;4.40;;;4.70;90.80;;;;;;4966352;28;20731;-46
2023/12/02 01:21:07;;;;;;;5.97;3.63;;;4.70;90.60;;;;;;4969984;28;20199;-45
2023/12/02 01:23:36;;;;;;;4.07;2.75;;;4.70;90.60;;;;;;4969235;28;20271;-47
2023/12/02 01:26:04;;;;;;;4.78;3.22;;;4.70;90.70;;;;;;4968071;28;20282;-45
2023/12/02 01:28:33;;;;;;;7.90;4.95;;;4.70;90.80;;;;;;4966124;28;20298;-47
2023/12/02 01:31:01;;;;;;;4.55;3.75;;;4.70;90.60;;;;;;4970014;28;20195;-44
2023/12/02 01:33:29;;;;;;;4.15;3.05;;;4.70;90.80;;;;;;4969779;28;20223;-45
2023/12/02 01:35:57;;;;;;;5.40;3.83;;;4.70;90.80;;;;;;4964999;28;20219;-46
2023/12/02 01:38:27;;;;;;;4.40;3.10;;;4.70;90.80;;;;;;4969058;28;20270;-44
2023/12/02 01:40:55;;;;;;;4.53;3.25;;;4.70;91.20;;;;;;4963103;28;20657;-44
2023/12/02 01:43:25;;;;;;;4.75;3.53;;;4.70;90.80;;;;;;4969617;28;20235;-44
2023/12/02 01:45:55;;;;;;;4.93;4.28;;;4.70;90.80;;;;;;4969915;28;20215;-45
2023/12/02 01:48:26;;;;;;;5.05;3.65;;;4.70;90.80;;;;;;4967333;28;20286;-46
2023/12/02 01:50:54;;;;;;;4.70;3.70;;;4.70;90.80;;;;;;4968675;28;20658;-45
2023/12/02 01:53:23;;;;;;;4.40;3.83;;;4.70;90.70;;;;;;4971815;28;20262;-46
2023/12/02 01:55:51;;;;;;;6.93;4.65;;;4.70;90.70;;;;;;4970669;28;20290;-45
2023/12/02 01:58:19;;;;;;;5.97;3.80;;;4.70;90.70;;;;;;4971876;28;20227;-46
2023/12/02 02:00:47;;;;;;;6.22;4.28;;;4.70;90.70;;;;;;4971298;28;20229;-44
2023/12/02 02:03:16;;;;;;;6.50;4.43;;;4.70;90.70;;;;;;4971218;28;20215;-46
2023/12/02 02:05:45;;;;;;;6.18;4.35;;;4.70;90.70;;;;;;4968720;28;20632;-45
2023/12/02 02:08:13;;;;;;;6.38;4.40;;;4.70;90.70;;;;;;4971492;28;20617;-47
2023/12/02 02:10:41;;;;;;;4.90;3.55;;;4.70;90.70;;;;;;4968771;28;20801;-46
2023/12/02 02:13:09;;;;;;;4.90;3.88;;;4.70;90.80;;;;;;4971673;28;20282;-46
2023/12/02 02:15:37;;;;;;;5.78;4.53;;;4.70;90.70;;;;;;4974079;28;20261;-44
2023/12/02 02:18:05;;;;;;;4.35;3.83;;;4.70;90.70;;;;;;4973481;28;20223;-44
2023/12/02 02:20:35;;;;;;;4.60;3.78;;;4.70;90.80;;;;;;4969043;28;20195;-50
2023/12/02 02:23:04;;;;;;;4.80;3.22;;;4.70;90.70;;;;;;4972773;28;20231;-46
2023/12/02 02:25:32;;;;;;;5.30;3.70;;;4.70;90.80;;;;;;4967294;28;20183;-45
2023/12/02 02:28:00;;;;;;;5.15;4.18;;;4.70;90.70;;;;;;4972379;28;20222;-44
2023/12/02 02:30:29;;;;;;;5.90;3.83;;;4.70;90.70;;;;;;4972468;28;20318;-45
2023/12/02 02:32:57;;;;;;;5.00;3.75;;;4.60;90.70;;;;;;4972175;28;20211;-45
2023/12/02 02:35:25;;;;;;;6.22;5.32;;;4.70;90.70;;;;;;4969076;28;20206;-47
2023/12/02 02:37:53;;;;;;;4.70;3.80;;;4.70;90.70;;;;;;4971536;28;20851;-46
2023/12/02 02:40:23;;;;;;;4.07;3.38;;;4.70;90.70;;;;;;4971996;28;20246;-50
2023/12/02 02:42:51;;;;;;;3.92;3.40;;;4.70;90.70;;;;;;4970900;28;20736;-44
2023/12/02 02:45:19;;;;;;;5.20;3.65;;;4.70;90.80;;;;;;4972282;28;20736;-46
2023/12/02 02:47:47;;;;;;;3.88;3.03;;;4.70;90.70;;;;;;4971748;28;20211;-47
2023/12/02 02:50:15;;;;;;;4.57;3.70;;;4.70;90.70;;;;;;4969505;28;20226;-46
2023/12/02 02:52:44;;;;;;;3.42;2.92;;;4.70;90.70;;;;;;4970867;28;20669;-46
2023/12/02 02:55:12;;;;;;;4.03;3.58;;;4.70;90.70;;;;;;4971964;28;20339;-44
2023/12/02 02:57:41;;;;;;;5.20;3.70;;;4.70;90.80;;;;;;4968940;28;20222;-44
2023/12/02 03:00:11;;;;;;;4.65;3.38;;;4.60;90.70;;;;;;4970096;28;20227;-47
2023/12/02 03:02:39;;;;;;;4.82;4.30;;;4.70;90.80;;;;;;4969598;28;20199;-45
2023/12/02 03:05:08;;;;;;;4.88;3.00;;;4.70;90.70;;;;;;4966901;28;20211;-47
2023/12/02 03:07:36;;;;;;;4.63;3.17;;;4.60;90.80;;;;;;4969560;28;20274;-45
2023/12/02 03:10:05;;;;;;;4.40;3.90;;;4.60;90.80;;;;;;4970054;28;20227;-46
2023/12/02 03:12:33;;;;;;;6.53;3.40;;;4.70;90.70;;;;;;4967440;28;20332;-45
2023/12/02 03:15:03;;;;;;;4.07;3.28;;;4.70;90.80;;;;;;4970381;28;20215;-44
2023/12/02 03:17:32;;;;;;;4.95;3.70;;;4.60;90.70;;;;;;4970047;28;20582;-46
2023/12/02 03:20:00;;;;;;;3.90;3.47;;;4.60;90.70;;;;;;4967440;28;20215;-47
2023/12/02 03:22:28;;;;;;;3.92;2.95;;;4.70;90.80;;;;;;4968983;28;20254;-46
2023/12/02 03:24:56;;;;;;;4.57;3.40;;;4.60;90.80;;;;;;4970920;28;20211;-47
2023/12/02 03:27:24;;;;;;;4.35;3.25;;;4.70;90.80;;;;;;4969514;28;20239;-47
2023/12/02 03:29:52;;;;;;;4.25;3.00;;;4.60;90.80;;;;;;4970411;28;21573;-46
2023/12/02 03:32:21;;;;;;;4.07;3.15;;;4.60;90.70;;;;;;4970088;28;20217;-47
2023/12/02 03:34:51;;;;;;;4.10;3.05;;;4.60;90.80;;;;;;4969733;28;20270;-44
2023/12/02 03:37:22;;;;;;;4.72;4.22;;;4.60;90.80;;;;;;4969335;28;20199;-44
2023/12/02 03:39:50;;;;;;;4.75;3.47;;;4.60;90.80;;;;;;4970436;28;20232;-45
2023/12/02 03:42:18;;;;;;;3.97;3.58;;;4.60;90.80;;;;;;4968816;28;20195;-45
2023/12/02 03:44:46;;;;;;;3.72;3.33;;;4.60;90.80;;;;;;4970226;28;20219;-45
2023/12/02 03:47:14;;;;;;;5.20;3.58;;;4.60;90.80;;;;;;4971241;28;20218;-46
2023/12/02 03:49:43;;;;;;;4.70;3.58;;;4.60;90.80;;;;;;4984722;28;20761;-49
2023/12/02 03:52:11;;;;;;;4.43;3.70;;;4.60;90.80;;;;;;4968376;28;20630;-44
2023/12/02 03:54:39;;;;;;;4.65;3.63;;;4.60;90.70;;;;;;4969645;28;20222;-44
2023/12/02 03:57:10;;;;;;;5.28;3.65;;;4.60;90.80;;;;;;4967396;28;20673;-46
2023/12/02 03:59:40;;;;;;;5.43;3.70;;;4.60;90.80;;;;;;4969298;28;20223;-45
2023/12/02 04:02:08;;;;;;;4.60;3.75;;;4.60;90.80;;;;;;4969123;28;20238;-48
2023/12/02 04:04:36;;;;;;;4.70;4.05;;;4.60;90.80;;;;;;4965482;28;20273;-47
2023/12/02 04:07:06;;;;;;;5.10;3.22;;;4.60;90.80;;;;;;4969066;28;20191;-45
2023/12/02 04:09:34;;;;;;;4.63;3.25;;;4.60;90.80;;;;;;4965309;28;20592;-44
2023/12/02 04:12:03;;;;;;;4.38;3.92;;;4.60;90.80;;;;;;4966370;28;20219;-44
2023/12/02 04:14:31;;;;;;;4.55;3.80;;;4.60;90.80;;;;;;4968924;28;20215;-45
2023/12/02 04:16:59;;;;;;;4.32;3.50;;;4.60;90.80;;;;;;4971210;28;20191;-45
2023/12/02 04:19:27;;;;;;;3.85;3.03;;;4.60;90.80;;;;;;4965692;28;20222;-45
2023/12/02 04:21:55;;;;;;;6.85;3.05;;;4.60;90.80;;;;;;4970024;28;20565;-44
2023/12/02 04:24:25;;;;;;;4.80;3.75;;;4.60;90.80;;;;;;4969929;28;20245;-45
2023/12/02 04:26:53;;;;;;;3.80;3.40;;;4.60;90.80;;;;;;4983372;28;20678;-47
2023/12/02 04:29:21;;;;;;;4.10;3.10;;;4.60;90.80;;;;;;4970048;28;20235;-46
2023/12/02 04:31:49;;;;;;;5.07;3.97;;;4.60;90.80;;;;;;4970080;28;20237;-45
2023/12/02 04:34:17;;;;;;;3.80;2.80;;;4.60;90.80;;;;;;4969684;28;20223;-45
2023/12/02 04:36:45;;;;;;;4.72;3.45;;;4.60;90.80;;;;;;4968668;28;20566;-45
2023/12/02 04:39:13;;;;;;;5.40;3.58;;;4.60;90.70;;;;;;4970136;28;20219;-45
2023/12/02 04:41:43;;;;;;;4.78;3.40;;;4.60;90.80;;;;;;4967875;28;20203;-47
2023/12/02 04:44:11;;;;;;;4.25;3.40;;;4.60;90.70;;;;;;4968614;28;20223;-44
2023/12/02 04:46:42;;;;;;;5.28;3.75;;;4.60;90.80;;;;;;4970103;28;20199;-50
2023/12/02 04:49:12;;;;;;;3.85;3.45;;;4.60;90.70;;;;;;4966367;28;20700;-46
2023/12/02 04:51:40;;;;;;;3.75;3.00;;;4.60;90.70;;;;;;4967438;28;20211;-45
2023/12/02 04:54:09;;;;;;;5.50;3.80;;;4.60;90.70;;;;;;4968399;28;20234;-45
2023/12/02 04:56:37;;;;;;;4.82;3.60;;;4.60;90.70;;;;;;4967286;28;20720;-46
2023/12/02 04:59:07;;;;;;;4.38;3.55;;;4.60;90.70;;;;;;4969003;28;20219;-47
2023/12/02 05:01:35;;;;;;;4.53;4.03;;;4.60;90.70;;;;;;4968716;28;20222;-45
2023/12/02 05:04:05;;;;;;;5.00;3.55;;;4.60;90.80;;;;;;4969413;28;20234;-47
2023/12/02 05:06:33;;;;;;;5.65;4.10;;;4.60;90.70;;;;;;4964750;28;20195;-47
2023/12/02 05:09:02;;;;;;;5.22;4.03;;;4.60;90.70;;;;;;4969561;28;20219;-48
2023/12/02 05:11:30;;;;;;;4.82;3.47;;;4.60;90.70;;;;;;4966968;28;20683;-44
2023/12/02 05:13:58;;;;;;;4.65;3.15;;;4.60;90.70;;;;;;4969455;28;20554;-45
2023/12/02 05:16:28;;;;;;;6.22;4.10;;;4.60;90.70;;;;;;4970672;28;20195;-44
2023/12/02 05:18:56;;;;;;;5.65;4.50;;;4.60;90.70;;;;;;4965748;28;20779;-46
2023/12/02 05:21:24;;;;;;;3.75;3.10;;;4.50;90.70;;;;;;4972219;28;20195;-45
2023/12/02 05:23:52;;;;;;;4.82;3.28;;;4.50;90.70;;;;;;4969671;28;20285;-44
2023/12/02 05:26:20;;;;;;;4.95;3.50;;;4.50;90.70;;;;;;4969890;28;20223;-44
2023/12/02 05:28:48;;;;;;;3.50;3.20;;;4.60;90.70;;;;;;4972679;28;20230;-46
2023/12/02 05:31:19;;;;;;;3.70;3.15;;;4.50;90.70;;;;;;4973455;28;20198;-45
2023/12/02 05:33:48;;;;;;;4.18;3.40;;;4.60;90.70;;;;;;4970152;28;20295;-44
2023/12/02 05:36:16;;;;;;;5.28;3.67;;;4.50;90.70;;;;;;4974090;28;20616;-43
2023/12/02 05:38:45;;;;;;;4.50;3.50;;;4.50;90.60;;;;;;4973187;28;20223;-45
2023/12/02 05:41:13;;;;;;;5.45;3.70;;;4.50;90.70;;;;;;4970248;28;20594;-44
2023/12/02 05:43:41;;;;;;;4.30;3.20;;;4.50;90.70;;;;;;4973019;28;20293;-44
2023/12/02 05:46:15;;;;;;;4.03;3.63;;;4.50;90.70;;;;;;4988695;28;20215;-45
2023/12/02 05:48:44;;;;;;;4.18;3.75;;;4.60;90.70;;;;;;4968161;28;20227;-43
2023/12/02 05:51:14;;;;;;;4.57;2.88;;;4.50;90.70;;;;;;4969796;28;20214;-45
2023/12/02 05:53:43;;;;;;;4.60;3.30;;;4.50;90.70;;;;;;4972160;28;20223;-47
2023/12/02 05:56:11;;;;;;;4.45;3.58;;;4.50;90.70;;;;;;4970879;28;20612;-44
2023/12/02 05:58:39;;;;;;;4.50;3.40;;;4.50;90.70;;;;;;4971764;28;20247;-46
2023/12/02 06:01:09;;;;;;;4.07;3.67;;;4.50;90.70;;;;;;4970601;28;20254;-44
2023/12/02 06:03:37;;;;;;;4.45;3.55;;;4.50;90.60;;;;;;4971255;28;20254;-46
2023/12/02 06:06:11;;;;;;;4.25;3.50;;;4.50;90.70;;;;;;4967023;28;20203;-44
2023/12/02 06:08:40;;;;;;;3.80;3.17;;;4.50;90.70;;;;;;4968106;28;20448;-44
2023/12/02 06:11:08;;;;;;;4.95;3.60;;;4.50;90.70;;;;;;4968619;28;20243;-45
2023/12/02 06:13:36;;;;;;;4.30;3.47;;;4.50;90.70;;;;;;4971011;28;20230;-45
2023/12/02 06:16:05;;;;;;;4.80;3.65;;;4.50;90.70;;;;;;4972084;28;20283;-43
2023/12/02 06:18:33;;;;;;;5.07;3.85;;;4.50;90.60;;;;;;4966332;28;20285;-47
2023/12/02 06:21:01;;;;;;;4.65;3.55;;;4.50;90.70;;;;;;4969951;28;20306;-44
2023/12/02 06:23:29;;;;;;;4.82;4.18;;;4.50;90.70;;;;;;4972821;28;20230;-44
2023/12/02 06:26:00;;;;;;;4.68;2.85;;;4.50;90.60;;;;;;4969879;28;20242;-46
2023/12/02 06:28:28;;;;;;;4.78;3.60;;;4.50;90.70;;;;;;4972174;28;20235;-45
2023/12/02 06:30:57;;;;;;;4.28;3.80;;;4.50;90.60;;;;;;4972405;28;20199;-44
2023/12/02 06:33:25;;;;;;;3.88;3.03;;;4.50;90.60;;;;;;4972110;28;20223;-45
2023/12/02 06:35:53;;;;;;;4.88;3.45;;;4.50;90.60;;;;;;4967922;28;20242;-44
2023/12/02 06:38:22;;;;;;;4.22;3.20;;;4.50;90.60;;;;;;4971427;28;20223;-47
2023/12/02 06:40:50;;;;;;;5.00;3.75;;;4.50;90.60;;;;;;4969420;28;20216;-45
2023/12/02 06:43:19;;;;;;;4.28;3.40;;;4.50;90.60;;;;;;4972135;28;20301;-46
2023/12/02 06:45:47;;;;;;;5.20;3.67;;;4.50;90.60;;;;;;4972437;28;20191;-47
2023/12/02 06:48:15;;;;;;;4.97;3.75;;;4.50;90.60;;;;;;4970516;28;20759;-47
2023/12/02 06:50:43;;;;;;;4.63;3.50;;;4.50;90.60;;;;;;4969075;28;20192;-44
2023/12/02 06:53:13;;;;;;;5.28;4.40;;;4.50;90.60;;;;;;4971530;28;20315;-48
2023/12/02 06:55:42;;;;;;;4.70;3.72;;;4.50;90.70;;;;;;4968972;28;20821;-47
2023/12/02 06:58:10;;;;;;;3.55;3.17;;;4.50;90.60;;;;;;4969635;28;20709;-44
2023/12/02 07:00:39;;;;;;;4.22;3.35;;;4.50;90.60;;;;;;4968052;28;20333;-45
2023/12/02 07:03:08;;;;;;;4.07;2.78;;;4.50;90.60;;;;;;4971797;28;20223;-46
2023/12/02 07:05:37;;;;;;;4.03;3.58;;;4.50;90.70;;;;;;4968745;28;20211;-46
2023/12/02 07:08:05;;;;;;;3.90;3.20;;;4.50;91.10;;;;;;4969439;28;20219;-43
2023/12/02 07:10:33;;;;;;;3.58;3.15;;;4.50;90.70;;;;;;4965819;28;20207;-44
2023/12/02 07:13:01;;;;;;;4.50;3.40;;;4.50;91.20;;;;;;4967179;28;20195;-44
2023/12/02 07:15:29;;;;;;;4.68;3.50;;;4.50;90.70;;;;;;4971967;28;20530;-45
2023/12/02 07:17:59;;;;;;;4.00;3.53;;;4.50;90.70;;;;;;4970749;28;20731;-44
2023/12/02 07:20:27;;;;;;;3.95;3.20;;;4.50;90.60;;;;;;4968941;28;20215;-43
2023/12/02 07:22:55;;;;;;;5.15;3.60;;;4.50;90.60;;;;;;4969880;28;20290;-44
2023/12/02 07:25:23;;;;;;;4.15;3.20;;;4.50;90.70;;;;;;4970468;28;20195;-50
2023/12/02 07:27:51;;;;;;;3.22;2.75;;;4.50;90.70;;;;;;4970022;28;20223;-45
2023/12/02 07:30:19;;;;;;;4.07;3.20;;;4.50;90.60;;;;;;4971511;28;20211;-46
2023/12/02 07:32:50;;;;;;;4.32;3.63;;;4.50;90.60;;;;;;4968598;28;20340;-46
2023/12/02 07:35:19;;;;;;;4.05;2.90;;;4.50;90.70;;;;;;4967499;28;20227;-46
2023/12/02 07:37:49;;;;;;;5.10;3.13;;;4.50;90.70;;;;;;4970988;28;20310;-44
2023/12/02 07:40:17;;;;;;;4.70;3.83;;;4.50;90.60;;;;;;4971785;28;20227;-45
2023/12/02 07:42:45;;;;;;;4.80;3.00;;;4.50;90.70;;;;;;4967786;28;20195;-45
2023/12/02 07:45:13;;;;;;;6.28;3.63;;;4.50;90.60;;;;;;4971533;28;20203;-44
2023/12/02 07:47:41;;;;;;;4.63;3.70;;;4.40;90.60;;;;;;4971334;28;20245;-44
2023/12/02 07:50:10;;;;;;;5.93;3.20;;;4.50;90.70;;;;;;4969111;28;20243;-44
2023/12/02 07:52:39;;;;;;;4.57;3.58;;;4.50;90.60;;;;;;4970448;28;20567;-46
2023/12/02 07:55:08;;;;;;;3.72;3.00;;;4.50;90.60;;;;;;4970854;28;20743;-46
2023/12/02 07:57:36;;;;;;;4.65;3.10;;;4.40;90.60;;;;;;4968921;28;20218;-43
2023/12/02 08:00:05;;;;;;;4.63;3.67;;;4.40;90.60;;;;;;4966417;28;20222;-44
2023/12/02 08:02:39;;;;;;;4.63;3.50;;;4.50;90.60;;;;;;4967393;28;20665;-45
2023/12/02 08:05:09;;;;;;;4.68;3.42;;;4.50;90.60;;;;;;4969187;28;20314;-44
2023/12/02 08:07:42;;;;;;;4.45;3.45;;;4.50;90.60;;;;;;4967276;28;20594;-47
2023/12/02 08:10:11;;;;;;;4.38;3.15;;;4.50;90.60;;;;;;4969435;28;20302;-45
2023/12/02 08:12:39;;;;;;;5.82;4.05;;;4.50;90.60;;;;;;4965461;28;20207;-45
2023/12/02 08:15:08;;;;;;;4.35;3.53;;;4.40;90.60;;;;;;4968474;28;20238;-46
2023/12/02 08:17:36;;;;;;;3.47;3.17;;;4.40;90.60;;;;;;4970447;28;20704;-43
2023/12/02 08:20:05;;;;;;;4.18;3.25;;;4.40;90.60;;;;;;4963757;28;20717;-44
2023/12/02 08:22:34;;;;;;;3.70;3.40;;;4.50;90.60;;;;;;4967064;28;20198;-45
2023/12/02 08:25:03;;;;;;;5.30;3.80;;;4.40;90.60;;;;;;4969739;28;20230;-44
2023/12/02 08:27:32;;;;;;;3.97;3.33;;;4.40;90.60;;;;;;4967918;28;20218;-45
2023/12/02 08:30:00;;;;;;;4.13;3.13;;;4.40;90.60;;;;;;4969939;28;20222;-44
2023/12/02 08:32:28;;;;;;;4.43;3.50;;;4.40;91.10;;;;;;4970725;28;20199;-43
2023/12/02 08:34:56;;;;;;;3.75;2.95;;;4.40;90.60;;;;;;4968233;28;20227;-44
2023/12/02 08:37:25;;;;;;;3.90;3.50;;;4.40;91.10;;;;;;4971185;28;20233;-44
2023/12/02 08:39:53;;;;;;;3.97;3.58;;;4.40;90.60;;;;;;4969474;28;20229;-45
2023/12/02 08:42:25;;;;;;;5.00;3.45;;;4.40;90.60;;;;;;4967451;28;20250;-45
2023/12/02 08:44:55;;;;;;;5.22;4.00;;;4.40;90.60;;;;;;4961159;28;20225;-47
2023/12/02 08:47:23;;;;;;;4.18;3.22;;;4.40;90.60;;;;;;4970473;28;20238;-46
2023/12/02 08:49:54;;;;;;;3.20;2.67;;;4.40;90.50;;;;;;4967562;28;20230;-46
2023/12/02 08:52:23;;;;;;;3.10;2.55;;;4.40;90.50;;;;;;4969243;28;20206;-45
2023/12/02 08:54:51;;;;;;;4.43;3.20;;;4.40;90.50;;;;;;4969979;28;20623;-45
2023/12/02 08:57:19;;;;;;;3.40;2.90;;;4.40;90.50;;;;;;4966855;28;20621;-45
2023/12/02 08:59:48;;;;;;;4.97;3.20;;;4.40;90.50;;;;;;4968592;28;20731;-46
2023/12/02 09:02:17;;;;;;;4.60;2.97;;;4.40;90.50;;;;;;4971306;28;20699;-46
2023/12/02 09:04:45;;;;;;;4.05;2.75;;;4.40;90.50;;;;;;4970378;28;20223;-46
2023/12/02 09:07:13;;;;;;;4.20;3.80;;;4.40;90.50;;;;;;4972575;28;20195;-44
2023/12/02 09:09:42;;;;;;;4.22;3.33;;;4.40;90.50;;;;;;4971794;28;20721;-45
2023/12/02 09:12:10;;;;;;;4.95;3.53;;;4.40;90.50;;;;;;4969668;28;20650;-45
2023/12/02 09:14:38;;;;;;;3.92;3.30;;;4.40;90.50;;;;;;4971934;28;20306;-45
2023/12/02 09:17:51;;;;;;;4.60;3.63;;;4.40;90.50;;;;;;4969228;28;20199;-46
2023/12/02 09:20:35;;;;;;;3.65;2.90;;;4.40;90.50;;;;;;4968239;28;20728;-43
2023/12/02 09:23:04;;;;;;;4.28;3.25;;;4.40;90.50;;;;;;4973214;28;20250;-44
2023/12/02 09:25:36;;;;;;;4.00;3.13;;;4.40;90.50;;;;;;4968257;28;20230;-44
2023/12/02 09:28:23;;;;;;;3.10;2.80;;;4.40;90.50;;;;;;4973547;28;20235;-46
2023/12/02 09:30:58;;;;;;;3.55;2.75;;;4.40;90.50;;;;;;4971880;28;20286;-44
2023/12/02 09:33:39;;;;;;;3.42;3.10;;;4.40;90.50;;;;;;4970031;28;20231;-45
2023/12/02 09:36:24;;;;;;;4.00;2.97;;;4.40;90.50;;;;;;4966202;28;20195;-47
2023/12/02 09:38:54;;;;;;;3.53;3.20;;;4.40;90.50;;;;;;4972705;28;20290;-45
2023/12/02 09:41:33;;;;;;;3.53;2.97;;;4.40;90.50;;;;;;4970331;28;20219;-47
2023/12/02 09:44:22;;;;;;;3.90;3.42;;;4.40;90.50;;;;;;4972910;28;20229;-44
2023/12/02 09:46:58;;;;;;;3.33;2.90;;;4.40;90.50;;;;;;4971840;28;20196;-45
2023/12/02 09:49:55;;;;;;;3.45;2.88;;;4.40;90.50;;;;;;4972474;28;20237;-44
2023/12/02 09:52:34;;;;;;;3.72;3.30;;;4.40;90.50;;;;;;4965102;28;20601;-45
2023/12/02 09:55:12;;;;;;;4.18;3.15;;;4.40;90.50;;;;;;4972738;28;20222;-44
2023/12/02 09:58:00;;;;;;;3.45;2.50;;;4.40;90.50;;;;;;4969224;28;20277;-45
2023/12/02 10:00:40;;;;;;;3.75;3.13;;;4.40;90.50;;;;;;4972005;28;20231;-45
2023/12/02 10:03:32;;;;;;;2.53;2.33;;;4.40;90.50;;;;;;4970503;28;20250;-45
2023/12/02 10:06:10;;;;;;;3.22;2.92;;;4.40;90.50;;;;;;4967737;28;20199;-45
2023/12/02 10:08:52;;;;;;;3.70;3.03;;;4.40;90.50;;;;;;4968405;28;20230;-47
2023/12/02 10:11:31;;;;;;;3.67;3.08;;;4.40;90.50;;;;;;4967631;28;20246;-43
2023/12/02 10:14:01;;;;;;;3.30;2.95;;;4.40;90.50;;;;;;4966092;28;20238;-47
2023/12/02 10:16:34;;;;;;;3.50;3.20;;;4.40;90.50;;;;;;4970284;28;20196;-46
2023/12/02 10:19:12;;;;;;;3.47;3.15;;;4.40;90.50;;;;;;4969943;28;20238;-48
2023/12/02 10:21:46;;;;;;;3.70;3.05;;;4.40;90.50;;;;;;4969365;28;20207;-50
2023/12/02 10:24:18;;;;;;;3.22;2.80;;;4.40;90.50;;;;;;4987074;28;20218;-44
2023/12/02 10:26:56;;;;;;;3.22;2.92;;;4.40;90.50;;;;;;4969953;28;20191;-43
2023/12/02 10:29:30;;;;;;;3.00;2.70;;;4.40;90.50;;;;;;4971342;28;20215;-43
2023/12/02 10:32:08;;;;;;;3.65;3.17;;;4.40;90.50;;;;;;4972468;28;20195;-44
2023/12/02 10:34:43;;;;;;;4.30;3.08;;;4.40;90.50;;;;;;4965653;28;20226;-43
2023/12/02 10:37:14;;;;;;;3.58;3.22;;;4.40;90.50;;;;;;4970380;28;20191;-44
2023/12/02 10:39:46;;;;;;;4.38;2.90;;;4.40;90.40;;;;;;4972398;28;20273;-44
2023/12/02 10:42:18;;;;;;;5.25;3.40;;;4.40;90.40;;;;;;4969000;28;20695;-44
2023/12/02 10:44:56;;;;;;;4.22;3.83;;;4.40;90.50;;;;;;4971679;28;20313;-44
2023/12/02 10:47:25;;;;;;;3.72;3.33;;;4.40;90.50;;;;;;4972606;28;20290;-46
2023/12/02 10:49:53;;;;;;;3.40;3.10;;;4.40;90.40;;;;;;4968007;28;20319;-45
2023/12/02 10:52:24;;;;;;;3.58;3.25;;;4.40;90.50;;;;;;4968693;28;20547;-46
2023/12/02 10:54:59;;;;;;;3.40;2.80;;;4.40;90.50;;;;;;4970833;28;20211;-44
2023/12/02 10:57:28;;;;;;;3.17;2.88;;;4.40;90.50;;;;;;4968917;28;20235;-46
2023/12/02 11:00:07;;;;;;;3.42;2.70;;;4.40;90.50;;;;;;4971245;28;20229;-44
2023/12/02 11:02:41;;;;;;;3.55;3.25;;;4.40;90.40;;;;;;4966426;28;20697;-45
2023/12/02 11:05:20;;;;;;;3.60;3.28;;;4.40;90.50;;;;;;4964762;28;20223;-47
2023/12/02 11:07:53;;;;;;;3.75;3.35;;;4.40;90.50;;;;;;4969656;28;20254;-44
2023/12/02 11:10:30;;;;;;;4.35;3.90;;;4.40;90.40;;;;;;4970157;28;20351;-44
2023/12/02 11:13:03;;;;;;;4.63;3.55;;;4.40;90.40;;;;;;4969342;28;20195;-46
2023/12/02 11:15:39;;;;;;;3.95;3.53;;;4.40;90.50;;;;;;4970515;28;20195;-44
2023/12/02 11:18:14;;;;;;;3.45;3.15;;;4.40;90.40;;;;;;4970645;28;20223;-44
2023/12/02 11:20:51;;;;;;;4.50;3.38;;;4.40;90.40;;;;;;4975107;28;20195;-44
2023/12/02 11:23:43;;;;;;;4.65;3.60;;;4.30;90.40;;;;;;4980877;28;20223;-44
2023/12/02 11:26:28;;;;;;;3.80;3.40;;;4.40;90.40;;;;;;4972276;28;20207;-43
2023/12/02 11:29:07;;;;;;;3.50;3.00;;;4.40;90.40;;;;;;4972281;28;20227;-48
2023/12/02 11:32:17;;;;;;;3.38;3.08;;;4.40;90.40;;;;;;4969479;28;20211;-47
2023/12/02 11:34:57;;;;;;;2.65;2.33;;;4.40;90.40;;;;;;4942407;28;20473;-44
2023/12/02 11:37:36;;;;;;;4.25;3.60;;;4.30;90.40;;;;;;4967724;28;20582;-45
2023/12/02 11:40:16;;;;;;;4.03;3.63;;;4.40;90.40;;;;;;4971075;28;20220;-44
2023/12/02 11:42:52;;;;;;;3.90;3.05;;;4.40;90.50;;;;;;4966216;28;20258;-45
2023/12/02 11:45:26;;;;;;;3.53;3.22;;;4.40;90.50;;;;;;4970889;28;20269;-44
2023/12/02 11:48:12;;;;;;;3.75;3.15;;;4.40;90.50;;;;;;4970575;28;20222;-44
2023/12/02 11:50:56;;;;;;;4.43;3.40;;;4.40;90.50;;;;;;4965960;28;20226;-44
2023/12/02 11:53:34;;;;;;;4.20;3.38;;;4.40;90.50;;;;;;4970179;28;20226;-44
2023/12/02 11:56:10;;;;;;;3.20;2.90;;;4.40;90.50;;;;;;4968283;28;20203;-46
2023/12/02 11:58:51;;;;;;;3.20;2.78;;;4.40;90.50;;;;;;4966712;28;20716;-45
2023/12/02 12:01:50;;;;;;;3.80;3.17;;;4.40;90.50;;;;;;4967458;28;20709;-44
2023/12/02 12:04:47;;;;;;;3.80;3.20;;;4.40;90.50;;;;;;4967136;28;20219;-46
2023/12/02 12:07:33;;;;;;;3.55;3.25;;;4.40;90.50;;;;;;4966162;28;20740;-46
2023/12/02 12:10:07;;;;;;;5.38;4.60;;;4.40;90.50;;;;;;4967337;28;20219;-47
2023/12/02 12:12:41;;;;;;;4.57;3.55;;;4.40;90.40;;;;;;4964248;28;20195;-45
2023/12/02 12:15:09;;;;;;;3.00;2.67;;;4.40;90.50;;;;;;4965561;28;20250;-45
2023/12/02 12:17:38;;;;;;;5.13;3.70;;;4.40;90.50;;;;;;4971251;28;20243;-44
2023/12/02 12:20:19;;;;;;;4.50;3.35;;;4.40;90.60;;;;;;4966708;28;20353;-44
2023/12/02 12:22:48;;;;;;;4.43;3.85;;;4.40;91.00;;;;;;4967323;28;20211;-44
2023/12/02 12:25:16;;;;;;;3.78;3.30;;;4.40;90.60;;;;;;4970376;28;20195;-44
2023/12/02 12:27:45;;;;;;;3.72;2.90;;;4.40;90.50;;;;;;4967742;28;20219;-43
2023/12/02 12:30:14;;;;;;;3.55;3.25;;;4.40;90.50;;;;;;4970757;28;20229;-45
2023/12/02 12:32:42;;;;;;;4.10;3.10;;;4.40;90.50;;;;;;4970436;28;20199;-43
2023/12/02 12:35:12;;;;;;;3.95;3.33;;;4.40;90.50;;;;;;4982960;28;20219;-46
2023/12/02 12:37:41;;;;;;;4.38;3.10;;;4.40;90.60;;;;;;4970120;28;20219;-44
2023/12/02 12:40:11;;;;;;;3.50;3.20;;;4.40;90.60;;;;;;4962083;28;20342;-44
2023/12/02 12:42:47;;;;;;;4.75;4.05;;;4.40;90.60;;;;;;4966691;28;20187;-44
2023/12/02 12:45:15;;;;;;;4.45;3.42;;;4.40;90.60;;;;;;4967331;28;20301;-46
2023/12/02 12:47:44;;;;;;;5.45;4.10;;;4.40;90.60;;;;;;4967518;28;20219;-45
2023/12/02 12:50:14;;;;;;;4.05;3.50;;;4.40;90.40;;;;;;4963785;28;20674;-44
2023/12/02 12:52:48;;;;;;;3.00;2.70;;;4.40;90.60;;;;;;4970265;28;20199;-47
2023/12/02 12:55:20;;;;;;;4.10;3.70;;;4.40;90.60;;;;;;4963846;28;20219;-44
2023/12/02 12:57:54;;;;;;;3.60;2.78;;;4.40;90.60;;;;;;4959494;28;20223;-43
2023/12/02 13:00:27;;;;;;;4.30;3.40;;;4.40;90.60;;;;;;4965315;28;20293;-46
2023/12/02 13:03:35;;;;;;;4.05;3.25;;;4.40;90.60;;;;;;4963392;28;20215;-44
2023/12/02 13:06:13;;;;;;;4.65;3.42;;;4.40;90.60;;;;;;4964269;28;20618;-44
2023/12/02 13:09:05;;;;;;;4.43;3.28;;;4.40;90.60;;;;;;4967878;28;20227;-46
2023/12/02 13:11:38;;;;;;;3.80;3.20;;;4.40;90.60;;;;;;4962731;28;20195;-44
2023/12/02 13:14:10;;;;;;;3.80;2.95;;;4.40;90.60;;;;;;4969255;28;20289;-44
2023/12/02 13:16:39;;;;;;;3.85;3.00;;;4.40;90.60;;;;;;4966231;28;20791;-47
2023/12/02 13:19:11;;;;;;;4.78;3.45;;;4.40;90.60;;;;;;4963093;28;20725;-44
2023/12/02 13:21:41;;;;;;;4.68;3.17;;;4.40;90.60;;;;;;4966799;28;20203;-44
2023/12/02 13:24:12;;;;;;;3.92;3.50;;;4.40;90.60;;;;;;4963502;28;20307;-45